La Conner, WA (98257)

9:36 AM PST on November 23, 2014 (GMT -0800)
South Fidalgo Island | Change Station
CLOSE
Current Station
Personal Weather Station
Location: Anacortes, WA
Elevation: 42 ft
Nearby Weather Stations

Elev 42 ft 48.43 °N, 122.59 °W | Updated 4 minutes ago

Overcast
Overcast
47.7 °F
Feels Like 48 °F
N
2.0
Wind Variable Wind from SW
Gusts 4.0 mph

Today
High -- | Low -- °F
--% Chance of Precip.
Yesterday
High -- | Low -- °F
Precip. -- in
7:29 AM 4:22 PM
New Moon, 2% visible
Pressure 30.06 in
Visibility 10.0 miles
Clouds Few 800 ft
Mostly Cloudy 3400 ft
Windchill 48 °F
Dew Point 47 °F
Humidity 97%
Rainfall 0.27 in
Snow Depth Not available.
UV 0 out of 12
Pollen .10 out of 12
Air Quality Not available.
Flu Activity Not available.
METAR KBVS 231715Z AUTO 19005KT 10SM FEW008 BKN034 09/08 A3006 RMK A01 P000

More Conditions Fewer Conditions

Pressure 30.06 in
Visibility 10.0 miles
Clouds Few 800 ft
Mostly Cloudy 3400 ft
Windchill 48 °F
Dew Point 47 °F
Humidity 97%
Rainfall 0.27 in
Snow Depth Not available.
UV 0 out of 12
Pollen .10 out of 12
Air Quality Not available.
Flu Activity Not available.
METAR KBVS 231715Z AUTO 19005KT 10SM FEW008 BKN034 09/08 A3006 RMK A01 P000

More Conditions Fewer Conditions

10-Day Weather Forecast

Almanac

Astronomy

Nov. 23, 2014 Rise Set
Actual Time
Civil Twilight
Nautical Twilight
Astronomical Twilight
Moon
Length of Visible Light
Length of Day
Tomorrow will be .
, % of the Moon is Illuminated

Today's Extremes

State Highs State Lows

Community

WunderPhotos

Upload Photos

1,773,112 photos uploaded!

WunderBlogs® & News

Nearby

Air Quality

  Air Quality AQ Index Pollutant
Not available.

Snow Depth

Station Depth Elevation

Earthquake Activity

City Distance Mag. Time & Date
Minimum magnitude displayed is 2.5.

Coastal Water Temperatures

Place Temperature

Nearby Weather Stations